sensor_id;sensor_type;location;lat;lon;timestamp;pressure;altitude;pressure_sealevel;temperature;humidity
62634;BME280;48704;50.534;6.442;2022-12-07T00:01:14;95595.75;;;0.35;100.00
62634;BME280;48704;50.534;6.442;2022-12-07T00:03:42;95587.50;;;0.35;100.00
62634;BME280;48704;50.534;6.442;2022-12-07T00:06:09;95581.91;;;0.12;100.00
62634;BME280;48704;50.534;6.442;2022-12-07T00:08:35;95583.59;;;0.36;100.00
62634;BME280;48704;50.534;6.442;2022-12-07T00:11:06;95584.00;;;0.35;100.00
62634;BME280;48704;50.534;6.442;2022-12-07T00:13:32;95590.13;;;0.42;100.00
62634;BME280;48704;50.534;6.442;2022-12-07T00:16:07;95578.34;;;0.45;100.00
62634;BME280;48704;50.534;6.442;2022-12-07T00:18:33;95575.38;;;0.36;100.00
62634;BME280;48704;50.534;6.442;2022-12-07T00:21:07;95582.81;;;0.36;100.00
62634;BME280;48704;50.534;6.442;2022-12-07T00:23:34;95580.00;;;0.39;100.00
62634;BME280;48704;50.534;6.442;2022-12-07T00:26:15;95570.66;;;0.37;100.00
62634;BME280;48704;50.534;6.442;2022-12-07T00:28:41;95576.06;;;0.40;100.00
62634;BME280;48704;50.534;6.442;2022-12-07T00:31:11;95575.28;;;0.40;100.00
62634;BME280;48704;50.534;6.442;2022-12-07T00:33:38;95573.66;;;0.15;100.00
62634;BME280;48704;50.534;6.442;2022-12-07T00:36:07;95580.13;;;0.32;100.00
62634;BME280;48704;50.534;6.442;2022-12-07T00:38:34;95564.56;;;0.22;100.00
62634;BME280;48704;50.534;6.442;2022-12-07T00:41:04;95560.09;;;0.35;100.00
62634;BME280;48704;50.534;6.442;2022-12-07T00:43:29;95559.69;;;0.37;100.00
62634;BME280;48704;50.534;6.442;2022-12-07T00:45:55;95566.03;;;0.30;100.00
62634;BME280;48704;50.534;6.442;2022-12-07T00:48:21;95551.03;;;0.38;100.00
62634;BME280;48704;50.534;6.442;2022-12-07T00:50:47;95556.59;;;0.35;100.00
62634;BME280;48704;50.534;6.442;2022-12-07T00:53:13;95547.97;;;0.36;100.00
62634;BME280;48704;50.534;6.442;2022-12-07T00:55:38;95549.16;;;0.35;100.00
62634;BME280;48704;50.534;6.442;2022-12-07T00:58:04;95552.59;;;0.39;100.00
62634;BME280;48704;50.534;6.442;2022-12-07T01:00:30;95542.47;;;0.36;100.00
62634;BME280;48704;50.534;6.442;2022-12-07T01:02:55;95546.81;;;0.33;100.00
62634;BME280;48704;50.534;6.442;2022-12-07T01:05:21;95552.66;;;0.36;100.00
62634;BME280;48704;50.534;6.442;2022-12-07T01:07:46;95549.66;;;0.26;100.00
62634;BME280;48704;50.534;6.442;2022-12-07T01:10:12;95543.66;;;0.35;100.00
62634;BME280;48704;50.534;6.442;2022-12-07T01:12:38;95547.88;;;0.40;100.00
62634;BME280;48704;50.534;6.442;2022-12-07T01:15:03;95547.09;;;0.39;100.00
62634;BME280;48704;50.534;6.442;2022-12-07T01:17:29;95554.13;;;0.40;100.00
62634;BME280;48704;50.534;6.442;2022-12-07T01:19:54;95551.75;;;0.42;100.00
62634;BME280;48704;50.534;6.442;2022-12-07T01:22:20;95543.94;;;0.41;100.00
62634;BME280;48704;50.534;6.442;2022-12-07T01:24:45;95546.31;;;0.39;100.00
62634;BME280;48704;50.534;6.442;2022-12-07T01:27:12;95546.31;;;0.39;100.00
62634;BME280;48704;50.534;6.442;2022-12-07T01:29:38;95553.31;;;0.43;100.00
62634;BME280;48704;50.534;6.442;2022-12-07T01:32:03;95551.88;;;0.35;100.00
62634;BME280;48704;50.534;6.442;2022-12-07T01:34:28;95553.31;;;0.43;100.00
62634;BME280;48704;50.534;6.442;2022-12-07T01:36:54;95549.50;;;0.37;100.00
62634;BME280;48704;50.534;6.442;2022-12-07T01:39:19;95556.50;;;0.38;100.00
62634;BME280;48704;50.534;6.442;2022-12-07T01:41:44;95548.59;;;0.44;100.00
62634;BME280;48704;50.534;6.442;2022-12-07T01:44:28;95551.72;;;0.46;100.00
62634;BME280;48704;50.534;6.442;2022-12-07T01:47:03;95553.69;;;0.45;100.00
62634;BME280;48704;50.534;6.442;2022-12-07T01:49:43;95549.84;;;0.39;100.00
62634;BME280;48704;50.534;6.442;2022-12-07T01:52:23;95547.09;;;0.39;100.00
62634;BME280;48704;50.534;6.442;2022-12-07T01:54:53;95546.00;;;0.37;100.00
62634;BME280;48704;50.534;6.442;2022-12-07T01:57:20;95542.47;;;0.36;100.00
62634;BME280;48704;50.534;6.442;2022-12-07T01:59:48;95546.03;;;0.33;100.00
62634;BME280;48704;50.534;6.442;2022-12-07T02:02:20;95546.09;;;0.29;100.00
62634;BME280;48704;50.534;6.442;2022-12-07T02:04:48;95548.91;;;0.22;100.00
62634;BME280;48704;50.534;6.442;2022-12-07T02:07:16;95545.66;;;0.31;100.00
62634;BME280;48704;50.534;6.442;2022-12-07T02:09:41;95547.31;;;0.25;100.00
62634;BME280;48704;50.534;6.442;2022-12-07T02:12:06;95549.78;;;0.16;100.00
62634;BME280;48704;50.534;6.442;2022-12-07T02:14:32;95538.28;;;0.28;100.00
62634;BME280;48704;50.534;6.442;2022-12-07T02:31:16;95534.34;;;0.29;100.00
62634;BME280;48704;50.534;6.442;2022-12-07T02:33:51;95540.19;;;0.31;100.00
62634;BME280;48704;50.534;6.442;2022-12-07T02:38:56;95533.81;;;0.38;100.00
62634;BME280;48704;50.534;6.442;2022-12-07T02:41:29;95529.97;;;0.35;100.00
62634;BME280;48704;50.534;6.442;2022-12-07T02:44:03;95530.31;;;0.37;100.00
62634;BME280;48704;50.534;6.442;2022-12-07T02:46:40;95530.66;;;0.39;100.00
62634;BME280;48704;50.534;6.442;2022-12-07T02:49:07;95531.16;;;0.34;100.00
62634;BME280;48704;50.534;6.442;2022-12-07T02:51:33;95523.22;;;0.40;100.00
62634;BME280;48704;50.534;6.442;2022-12-07T02:53:59;95509.22;;;0.34;100.00
62634;BME280;48704;50.534;6.442;2022-12-07T03:07:18;95522.03;;;0.41;100.00
62634;BME280;48704;50.534;6.442;2022-12-07T03:09:57;95521.88;;;0.51;100.00
62634;BME280;48704;50.534;6.442;2022-12-07T03:12:39;95519.56;;;0.50;100.00
62634;BME280;48704;50.534;6.442;2022-12-07T03:15:15;95526.69;;;0.44;100.00
62634;BME280;48704;50.534;6.442;2022-12-07T03:17:44;95542.31;;;0.47;100.00
62634;BME280;48704;50.534;6.442;2022-12-07T03:20:13;95527.03;;;0.46;100.00
62634;BME280;48704;50.534;6.442;2022-12-07T03:22:41;95525.53;;;0.41;100.00
62634;BME280;48704;50.534;6.442;2022-12-07T03:25:10;95521.38;;;0.33;100.00
62634;BME280;48704;50.534;6.442;2022-12-07T03:27:46;95513.38;;;0.42;100.00
62634;BME280;48704;50.534;6.442;2022-12-07T03:30:18;95519.81;;;0.32;100.00
62634;BME280;48704;50.534;6.442;2022-12-07T03:33:20;95515.47;;;0.35;100.00
62634;BME280;48704;50.534;6.442;2022-12-07T03:35:49;95510.78;;;0.35;100.00
62634;BME280;48704;50.534;6.442;2022-12-07T03:38:20;95515.66;;;0.47;100.00
62634;BME280;48704;50.534;6.442;2022-12-07T03:41:06;95521.56;;;0.19;100.00
62634;BME280;48704;50.534;6.442;2022-12-07T03:43:34;95516.94;;;0.39;100.00
62634;BME280;48704;50.534;6.442;2022-12-07T03:46:27;95513.03;;;0.40;100.00
62634;BME280;48704;50.534;6.442;2022-12-07T03:54:35;95511.84;;;0.41;100.00
62634;BME280;48704;50.534;6.442;2022-12-07T03:57:02;95515.06;;;0.36;100.00
62634;BME280;48704;50.534;6.442;2022-12-07T03:59:29;95516.50;;;0.44;100.00
62634;BME280;48704;50.534;6.442;2022-12-07T04:02:01;95510.28;;;0.40;100.00
62634;BME280;48704;50.534;6.442;2022-12-07T04:04:27;95511.97;;;0.34;100.00
62634;BME280;48704;50.534;6.442;2022-12-07T04:06:53;95514.22;;;0.39;100.00
62634;BME280;48704;50.534;6.442;2022-12-07T04:09:18;95518.88;;;0.42;100.00
62634;BME280;48704;50.534;6.442;2022-12-07T04:11:44;95523.94;;;0.17;100.00
62634;BME280;48704;50.534;6.442;2022-12-07T04:14:09;95515.41;;;0.38;100.00
62634;BME280;48704;50.534;6.442;2022-12-07T04:16:46;95521.97;;;0.44;100.00
62634;BME280;48704;50.534;6.442;2022-12-07T04:19:12;95528.00;;;0.36;100.00
62634;BME280;48704;50.534;6.442;2022-12-07T04:21:37;95534.13;;;0.43;100.00
62634;BME280;48704;50.534;6.442;2022-12-07T04:24:03;95521.97;;;0.44;100.00
62634;BME280;48704;50.534;6.442;2022-12-07T04:26:29;95517.28;;;0.45;100.00
62634;BME280;48704;50.534;6.442;2022-12-07T04:28:54;95518.50;;;0.40;100.00
62634;BME280;48704;50.534;6.442;2022-12-07T04:31:20;95506.06;;;0.36;100.00
62634;BME280;48704;50.534;6.442;2022-12-07T04:33:45;95514.22;;;0.39;100.00
62634;BME280;48704;50.534;6.442;2022-12-07T04:36:10;95507.19;;;0.38;100.00
62634;BME280;48704;50.534;6.442;2022-12-07T04:38:36;95507.97;;;0.39;100.00
62634;BME280;48704;50.534;6.442;2022-12-07T04:41:08;95514.13;;;0.46;100.00
62634;BME280;48704;50.534;6.442;2022-12-07T04:43:34;95507.09;;;0.45;100.00
62634;BME280;48704;50.534;6.442;2022-12-07T04:46:03;95506.31;;;0.45;100.00
62634;BME280;48704;50.534;6.442;2022-12-07T04:48:29;95512.97;;;0.44;100.00
62634;BME280;48704;50.534;6.442;2022-12-07T04:50:55;95514.13;;;0.46;100.00
62634;BME280;48704;50.534;6.442;2022-12-07T04:53:20;95511.13;;;0.37;100.00
62634;BME280;48704;50.534;6.442;2022-12-07T04:55:46;95516.72;;;0.30;100.00
62634;BME280;48704;50.534;6.442;2022-12-07T04:58:12;95508.63;;;0.46;100.00
62634;BME280;48704;50.534;6.442;2022-12-07T05:00:38;95510.41;;;0.33;100.00
62634;BME280;48704;50.534;6.442;2022-12-07T05:03:03;95504.75;;;0.44;100.00
62634;BME280;48704;50.534;6.442;2022-12-07T05:05:28;95507.91;;;0.42;100.00
62634;BME280;48704;50.534;6.442;2022-12-07T05:07:54;95510.28;;;0.40;100.00
62634;BME280;48704;50.534;6.442;2022-12-07T05:10:19;95510.28;;;0.40;100.00
62634;BME280;48704;50.534;6.442;2022-12-07T05:12:45;95508.72;;;0.39;100.00
62634;BME280;48704;50.534;6.442;2022-12-07T05:15:11;95507.53;;;0.40;100.00
62634;BME280;48704;50.534;6.442;2022-12-07T05:17:37;95511.84;;;0.41;100.00
62634;BME280;48704;50.534;6.442;2022-12-07T05:20:03;95511.13;;;0.37;100.00
62634;BME280;48704;50.534;6.442;2022-12-07T05:22:29;95507.97;;;0.39;100.00
62634;BME280;48704;50.534;6.442;2022-12-07T05:24:55;95512.31;;;0.36;100.00
62634;BME280;48704;50.534;6.442;2022-12-07T05:27:20;95519.22;;;0.44;100.00
62634;BME280;48704;50.534;6.442;2022-12-07T05:29:46;95510.50;;;0.26;100.00
62634;BME280;48704;50.534;6.442;2022-12-07T05:32:11;95521.59;;;0.42;100.00
62634;BME280;48704;50.534;6.442;2022-12-07T05:34:37;95523.69;;;0.35;100.00
62634;BME280;48704;50.534;6.442;2022-12-07T05:37:02;95519.19;;;0.48;100.00
62634;BME280;48704;50.534;6.442;2022-12-07T05:39:27;95512.19;;;0.43;100.00
62634;BME280;48704;50.534;6.442;2022-12-07T05:41:53;95510.22;;;0.44;100.00
62634;BME280;48704;50.534;6.442;2022-12-07T05:44:45;95517.16;;;0.52;100.00
62634;BME280;48704;50.534;6.442;2022-12-07T05:47:12;95510.13;;;0.51;100.00
62634;BME280;48704;50.534;6.442;2022-12-07T05:49:38;95510.13;;;0.51;100.00
62634;BME280;48704;50.534;6.442;2022-12-07T05:52:03;95494.50;;;0.48;100.00
62634;BME280;48704;50.534;6.442;2022-12-07T05:54:29;95491.34;;;0.49;100.00
62634;BME280;48704;50.534;6.442;2022-12-07T05:56:54;95498.03;;;0.48;100.00
62634;BME280;48704;50.534;6.442;2022-12-07T05:59:20;95503.63;;;0.41;100.00
62634;BME280;48704;50.534;6.442;2022-12-07T06:01:53;95503.47;;;0.52;100.00
62634;BME280;48704;50.534;6.442;2022-12-07T06:04:19;95508.72;;;0.39;100.00
62634;BME280;48704;50.534;6.442;2022-12-07T06:06:45;95506.97;;;0.52;100.00
62634;BME280;48704;50.534;6.442;2022-12-07T06:09:11;95500.00;;;0.48;100.00
62634;BME280;48704;50.534;6.442;2022-12-07T06:11:37;95505.16;;;0.15;100.00
62634;BME280;48704;50.534;6.442;2022-12-07T06:14:21;95507.81;;;0.49;100.00
62634;BME280;48704;50.534;6.442;2022-12-07T06:16:47;95511.06;;;0.41;100.00
62634;BME280;48704;50.534;6.442;2022-12-07T06:19:12;95508.63;;;0.46;100.00
62634;BME280;48704;50.534;6.442;2022-12-07T06:21:38;95511.69;;;0.52;100.00
62634;BME280;48704;50.534;6.442;2022-12-07T06:24:03;95512.63;;;0.42;100.00
62634;BME280;48704;50.534;6.442;2022-12-07T06:26:29;95514.56;;;0.41;100.00
62634;BME280;48704;50.534;6.442;2022-12-07T06:28:54;95506.25;;;0.48;100.00
62634;BME280;48704;50.534;6.442;2022-12-07T06:31:19;95513.88;;;0.37;100.00
62634;BME280;48704;50.534;6.442;2022-12-07T06:33:45;95514.69;;;0.34;100.00
62634;BME280;48704;50.534;6.442;2022-12-07T06:36:10;95514.13;;;0.46;100.00
62634;BME280;48704;50.534;6.442;2022-12-07T06:38:36;95512.50;;;0.49;100.00
62634;BME280;48704;50.534;6.442;2022-12-07T06:41:01;95509.91;;;0.38;100.00
62634;BME280;48704;50.534;6.442;2022-12-07T06:43:27;95504.69;;;0.47;100.00
62634;BME280;48704;50.534;6.442;2022-12-07T06:45:52;95511.00;;;0.44;100.00
62634;BME280;48704;50.534;6.442;2022-12-07T06:48:17;95513.38;;;0.42;100.00
62634;BME280;48704;50.534;6.442;2022-12-07T06:50:46;95503.78;;;0.30;100.00
62634;BME280;48704;50.534;6.442;2022-12-07T06:53:12;95514.56;;;0.41;100.00
62634;BME280;48704;50.534;6.442;2022-12-07T06:55:38;95516.72;;;0.30;100.00
62634;BME280;48704;50.534;6.442;2022-12-07T06:58:03;95519.59;;;0.46;100.00
62634;BME280;48704;50.534;6.442;2022-12-07T07:00:29;95515.88;;;0.33;100.00
62634;BME280;48704;50.534;6.442;2022-12-07T07:02:54;95511.13;;;0.37;100.00
62634;BME280;48704;50.534;6.442;2022-12-07T07:05:20;95518.03;;;0.45;100.00
62634;BME280;48704;50.534;6.442;2022-12-07T07:07:49;95525.13;;;0.43;100.00
62634;BME280;48704;50.534;6.442;2022-12-07T07:10:14;95521.97;;;0.44;100.00
62634;BME280;48704;50.534;6.442;2022-12-07T07:12:40;95527.50;;;0.41;100.00
62634;BME280;48704;50.534;6.442;2022-12-07T07:15:05;95529.78;;;0.19;100.00
62634;BME280;48704;50.534;6.442;2022-12-07T07:17:31;95526.50;;;0.31;100.00
62634;BME280;48704;50.534;6.442;2022-12-07T07:19:56;95528.41;;;0.34;100.00
62634;BME280;48704;50.534;6.442;2022-12-07T07:22:21;95537.44;;;0.31;100.00
62634;BME280;48704;50.534;6.442;2022-12-07T07:24:47;95537.78;;;0.37;100.00
62634;BME280;48704;50.534;6.442;2022-12-07T07:27:12;95538.53;;;0.37;100.00
62634;BME280;48704;50.534;6.442;2022-12-07T07:29:37;95540.06;;;0.38;100.00
62634;BME280;48704;50.534;6.442;2022-12-07T07:32:03;95537.81;;;0.33;100.00
62634;BME280;48704;50.534;6.442;2022-12-07T07:34:28;95538.47;;;0.41;100.00
62634;BME280;48704;50.534;6.442;2022-12-07T07:36:53;95534.34;;;0.29;100.00
62634;BME280;48704;50.534;6.442;2022-12-07T07:39:19;95532.13;;;0.47;100.00
62634;BME280;48704;50.534;6.442;2022-12-07T07:41:44;95537.00;;;0.36;100.00
62634;BME280;48704;50.534;6.442;2022-12-07T07:44:09;95539.78;;;0.32;100.00
62634;BME280;48704;50.534;6.442;2022-12-07T07:46:35;95533.34;;;0.16;100.00
62634;BME280;48704;50.534;6.442;2022-12-07T07:49:00;95541.47;;;0.23;100.00
62634;BME280;48704;50.534;6.442;2022-12-07T07:51:25;95537.53;;;-0.07;100.00
62634;BME280;48704;50.534;6.442;2022-12-07T07:53:51;95534.06;;;0.20;100.00
62634;BME280;48704;50.534;6.442;2022-12-07T07:56:16;95537.94;;;0.22;100.00
62634;BME280;48704;50.534;6.442;2022-12-07T07:58:41;95534.97;;;0.10;100.00
62634;BME280;48704;50.534;6.442;2022-12-07T08:01:07;95533.34;;;0.16;100.00
62634;BME280;48704;50.534;6.442;2022-12-07T08:03:33;95538.09;;;0.12;100.00
62634;BME280;48704;50.534;6.442;2022-12-07T08:05:58;95539.28;;;0.11;100.00
62634;BME280;48704;50.534;6.442;2022-12-07T08:08:24;95547.34;;;0.21;100.00
62634;BME280;48704;50.534;6.442;2022-12-07T08:10:49;95541.88;;;0.21;100.00
62634;BME280;48704;50.534;6.442;2022-12-07T08:13:16;95542.41;;;0.09;100.00
62634;BME280;48704;50.534;6.442;2022-12-07T08:15:47;95539.56;;;0.20;100.00
62634;BME280;48704;50.534;6.442;2022-12-07T08:18:13;95552.88;;;0.18;100.00
62634;BME280;48704;50.534;6.442;2022-12-07T08:20:39;95550.47;;;0.23;100.00
62634;BME280;48704;50.534;6.442;2022-12-07T08:23:05;95548.78;;;0.33;100.00
62634;BME280;48704;50.534;6.442;2022-12-07T08:25:31;95549.06;;;0.39;100.00
62634;BME280;48704;50.534;6.442;2022-12-07T08:27:56;95547.00;;;0.46;100.00
62634;BME280;48704;50.534;6.442;2022-12-07T08:30:22;95542.16;;;0.57;100.00
62634;BME280;48704;50.534;6.442;2022-12-07T08:32:48;95549.06;;;0.69;100.00
62634;BME280;48704;50.534;6.442;2022-12-07T08:35:14;95542.88;;;0.61;100.00
62634;BME280;48704;50.534;6.442;2022-12-07T08:37:40;95554.78;;;0.51;100.00
62634;BME280;48704;50.534;6.442;2022-12-07T08:40:07;95547.91;;;0.66;100.00
62634;BME280;48704;50.534;6.442;2022-12-07T08:42:33;95549.09;;;0.65;100.00
62634;BME280;48704;50.534;6.442;2022-12-07T08:45:07;95551.53;;;0.60;100.00
62634;BME280;48704;50.534;6.442;2022-12-07T08:47:35;95553.72;;;0.72;100.00
62634;BME280;48704;50.534;6.442;2022-12-07T08:50:03;95555.69;;;0.72;100.00
62634;BME280;48704;50.534;6.442;2022-12-07T08:52:31;95553.84;;;0.61;100.00
62634;BME280;48704;50.534;6.442;2022-12-07T08:54:58;95549.09;;;0.65;100.00
62634;BME280;48704;50.534;6.442;2022-12-07T08:57:25;95549.81;;;0.70;100.00
62634;BME280;48704;50.534;6.442;2022-12-07T08:59:51;95555.19;;;0.77;100.00
62634;BME280;48704;50.534;6.442;2022-12-07T09:02:17;95552.84;;;0.75;100.00
62634;BME280;48704;50.534;6.442;2022-12-07T09:04:42;95550.41;;;0.81;100.00
62634;BME280;48704;50.534;6.442;2022-12-07T09:07:07;95551.59;;;0.80;100.00
62634;BME280;48704;50.534;6.442;2022-12-07T09:09:32;95545.75;;;0.78;100.00
62634;BME280;48704;50.534;6.442;2022-12-07T09:11:58;95551.50;;;0.87;100.00
62634;BME280;48704;50.534;6.442;2022-12-07T09:14:23;95551.88;;;0.89;100.00
62634;BME280;48704;50.534;6.442;2022-12-07T09:16:49;95549.22;;;0.82;100.00
62634;BME280;48704;50.534;6.442;2022-12-07T09:19:14;95550.22;;;0.95;100.00
62634;BME280;48704;50.534;6.442;2022-12-07T09:21:42;95557.22;;;0.73;100.00
62634;BME280;48704;50.534;6.442;2022-12-07T09:24:08;95549.75;;;1.00;100.00
62634;BME280;48704;50.534;6.442;2022-12-07T09:26:34;95550.00;;;1.09;100.00
62634;BME280;48704;50.534;6.442;2022-12-07T09:29:03;95552.66;;;0.89;100.00
62634;BME280;48704;50.534;6.442;2022-12-07T09:31:28;95551.38;;;0.71;100.00
62634;BME280;48704;50.534;6.442;2022-12-07T09:33:58;95550.28;;;0.64;100.00
62634;BME280;48704;50.534;6.442;2022-12-07T09:36:25;95552.16;;;0.71;100.00
62634;BME280;48704;50.534;6.442;2022-12-07T09:38:50;95556.16;;;0.90;100.00
62634;BME280;48704;50.534;6.442;2022-12-07T09:41:16;95558.91;;;0.90;100.00
62634;BME280;48704;50.534;6.442;2022-12-07T09:43:42;95553.22;;;0.77;100.00
62634;BME280;48704;50.534;6.442;2022-12-07T09:46:10;95546.81;;;0.60;100.00
62634;BME280;48704;50.534;6.442;2022-12-07T09:48:38;95555.81;;;0.88;100.00
62634;BME280;48704;50.534;6.442;2022-12-07T09:51:24;95555.59;;;1.02;100.00
62634;BME280;48704;50.534;6.442;2022-12-07T09:53:51;95544.34;;;1.16;100.00
62634;BME280;48704;50.534;6.442;2022-12-07T09:56:18;95546.09;;;1.07;100.00
62634;BME280;48704;50.534;6.442;2022-12-07T09:58:45;95551.50;;;0.87;100.00
62634;BME280;48704;50.534;6.442;2022-12-07T10:01:18;95546.06;;;1.10;100.00
62634;BME280;48704;50.534;6.442;2022-12-07T10:03:55;95550.09;;;1.02;100.00
62634;BME280;48704;50.534;6.442;2022-12-07T10:06:24;95545.09;;;1.44;100.00
62634;BME280;48704;50.534;6.442;2022-12-07T10:08:49;95547.84;;;1.44;100.00
62634;BME280;48704;50.534;6.442;2022-12-07T10:11:15;95547.19;;;1.36;100.00
62634;BME280;48704;50.534;6.442;2022-12-07T10:13:43;95555.22;;;1.23;100.00
62634;BME280;48704;50.534;6.442;2022-12-07T10:16:39;95536.13;;;1.16;100.00
62634;BME280;48704;50.534;6.442;2022-12-07T10:19:22;95547.47;;;1.18;100.00
62634;BME280;48704;50.534;6.442;2022-12-07T10:22:12;95544.91;;;1.08;100.00
62634;BME280;48704;50.534;6.442;2022-12-07T10:24:39;95546.50;;;1.28;100.00
62634;BME280;48704;50.534;6.442;2022-12-07T10:27:20;95546.56;;;1.25;100.00
62634;BME280;48704;50.534;6.442;2022-12-07T10:29:49;95538.16;;;1.12;100.00
62634;BME280;48704;50.534;6.442;2022-12-07T10:34:40;95525.38;;;1.25;100.00
62634;BME280;48704;50.534;6.442;2022-12-07T10:39:50;95517.00;;;1.95;100.00
62634;BME280;48704;50.534;6.442;2022-12-07T10:42:18;95510.53;;;2.06;100.00
62634;BME280;48704;50.534;6.442;2022-12-07T10:44:44;95502.91;;;1.93;100.00
62634;BME280;48704;50.534;6.442;2022-12-07T10:47:25;95512.56;;;2.57;100.00
62634;BME280;48704;50.534;6.442;2022-12-07T10:50:18;95509.66;;;2.81;100.00
62634;BME280;48704;50.534;6.442;2022-12-07T11:06:59;95495.34;;;2.53;100.00
62634;BME280;48704;50.534;6.442;2022-12-07T11:12:08;95482.81;;;2.16;100.00
62634;BME280;48704;50.534;6.442;2022-12-07T11:14:52;95480.56;;;2.11;100.00
62634;BME280;48704;50.534;6.442;2022-12-07T11:17:27;95479.13;;;2.23;100.00
62634;BME280;48704;50.534;6.442;2022-12-07T11:27:47;95476.06;;;2.37;100.00
62634;BME280;48704;50.534;6.442;2022-12-07T11:30:18;95472.41;;;2.92;100.00
62634;BME280;48704;50.534;6.442;2022-12-07T11:33:22;95462.88;;;2.97;100.00
62634;BME280;48704;50.534;6.442;2022-12-07T11:36:00;95456.66;;;3.09;100.00
62634;BME280;48704;50.534;6.442;2022-12-07T11:38:35;95455.41;;;2.13;100.00
62634;BME280;48704;50.534;6.442;2022-12-07T11:41:04;95451.63;;;2.23;100.00
62634;BME280;48704;50.534;6.442;2022-12-07T11:46:15;95451.03;;;2.31;100.00
62634;BME280;48704;50.534;6.442;2022-12-07T11:48:47;95446.00;;;2.46;100.00
62634;BME280;48704;50.534;6.442;2022-12-07T11:51:15;95445.56;;;2.64;100.00
62634;BME280;48704;50.534;6.442;2022-12-07T11:56:21;95439.59;;;3.14;100.00
62634;BME280;48704;50.534;6.442;2022-12-07T12:03:56;95439.72;;;3.40;100.00
62634;BME280;48704;50.534;6.442;2022-12-07T12:06:23;95441.84;;;3.19;100.00
62634;BME280;48704;50.534;6.442;2022-12-07T12:14:16;95435.31;;;2.32;100.00
62634;BME280;48704;50.534;6.442;2022-12-07T12:22:34;95429.53;;;1.74;100.00
62634;BME280;48704;50.534;6.442;2022-12-07T12:25:04;95422.78;;;1.59;100.00
62634;BME280;48704;50.534;6.442;2022-12-07T12:27:32;95424.75;;;1.39;100.00
62634;BME280;48704;50.534;6.442;2022-12-07T12:30:01;95431.75;;;1.43;100.00
62634;BME280;48704;50.534;6.442;2022-12-07T12:32:40;95417.00;;;1.33;100.00
62634;BME280;48704;50.534;6.442;2022-12-07T12:37:54;95424.75;;;1.39;100.00
62634;BME280;48704;50.534;6.442;2022-12-07T12:42:53;95416.44;;;1.62;100.00
62634;BME280;48704;50.534;6.442;2022-12-07T12:45:23;95414.88;;;1.61;100.00
62634;BME280;48704;50.534;6.442;2022-12-07T12:47:53;95424.53;;;1.49;100.00
62634;BME280;48704;50.534;6.442;2022-12-07T12:50:25;95414.69;;;1.32;100.00
62634;BME280;48704;50.534;6.442;2022-12-07T12:53:02;95411.66;;;1.26;100.00
62634;BME280;48704;50.534;6.442;2022-12-07T13:00:42;95401.53;;;1.99;100.00
62634;BME280;48704;50.534;6.442;2022-12-07T13:03:22;95403.75;;;1.68;100.00
62634;BME280;48704;50.534;6.442;2022-12-07T13:08:43;95401.16;;;1.61;100.00
62634;BME280;48704;50.534;6.442;2022-12-07T13:11:24;95395.56;;;1.84;100.00
62634;BME280;48704;50.534;6.442;2022-12-07T13:13:52;95402.06;;;1.74;100.00
62634;BME280;48704;50.534;6.442;2022-12-07T13:18:43;95404.53;;;2.05;100.00
62634;BME280;48704;50.534;6.442;2022-12-07T13:36:58;95381.50;;;1.82;100.00
62634;BME280;48704;50.534;6.442;2022-12-07T13:39:26;95382.16;;;1.50;100.00
62634;BME280;48704;50.534;6.442;2022-12-07T13:41:56;95375.22;;;1.46;100.00
62634;BME280;48704;50.534;6.442;2022-12-07T13:44:23;95365.00;;;1.46;100.00
62634;BME280;48704;50.534;6.442;2022-12-07T13:49:54;95369.00;;;1.42;100.00
62634;BME280;48704;50.534;6.442;2022-12-07T13:52:23;95356.13;;;1.39;100.00
62634;BME280;48704;50.534;6.442;2022-12-07T13:55:05;95361.28;;;1.37;100.00
62634;BME280;48704;50.534;6.442;2022-12-07T13:57:38;95359.16;;;1.24;100.00
62634;BME280;48704;50.534;6.442;2022-12-07T14:00:06;95368.59;;;1.23;100.00
62634;BME280;48704;50.534;6.442;2022-12-07T14:02:58;95362.25;;;1.26;100.00
62634;BME280;48704;50.534;6.442;2022-12-07T14:05:34;95352.81;;;1.27;100.00
62634;BME280;48704;50.534;6.442;2022-12-07T14:08:05;95355.22;;;1.25;100.00
62634;BME280;48704;50.534;6.442;2022-12-07T14:10:33;95355.22;;;1.25;100.00
62634;BME280;48704;50.534;6.442;2022-12-07T14:13:00;95356.63;;;1.33;100.00
62634;BME280;48704;50.534;6.442;2022-12-07T14:15:33;95352.88;;;1.24;100.00
62634;BME280;48704;50.534;6.442;2022-12-07T14:18:00;95358.44;;;1.20;100.00
62634;BME280;48704;50.534;6.442;2022-12-07T14:20:35;95358.38;;;1.24;100.00
62634;BME280;48704;50.534;6.442;2022-12-07T14:23:02;95348.94;;;1.25;100.00
62634;BME280;48704;50.534;6.442;2022-12-07T14:25:44;95354.88;;;1.23;100.00
62634;BME280;48704;50.534;6.442;2022-12-07T14:28:32;95344.22;;;1.25;100.00
62634;BME280;48704;50.534;6.442;2022-12-07T14:30:59;95342.13;;;1.33;100.00
62634;BME280;48704;50.534;6.442;2022-12-07T14:33:25;95347.19;;;1.34;100.00
62634;BME280;48704;50.534;6.442;2022-12-07T14:35:50;95346.34;;;1.38;100.00
62634;BME280;48704;50.534;6.442;2022-12-07T14:38:20;95349.03;;;1.21;100.00
62634;BME280;48704;50.534;6.442;2022-12-07T14:40:45;95341.13;;;1.23;100.00
62634;BME280;48704;50.534;6.442;2022-12-07T14:43:12;95341.69;;;1.34;100.00
62634;BME280;48704;50.534;6.442;2022-12-07T14:45:39;95339.66;;;1.19;100.00
62634;BME280;48704;50.534;6.442;2022-12-07T14:48:05;95328.63;;;1.22;100.00
62634;BME280;48704;50.534;6.442;2022-12-07T14:50:35;95330.16;;;1.23;100.00
62634;BME280;48704;50.534;6.442;2022-12-07T14:53:06;95326.78;;;1.16;100.00
62634;BME280;48704;50.534;6.442;2022-12-07T14:55:35;95331.84;;;1.17;100.00
62634;BME280;48704;50.534;6.442;2022-12-07T14:58:00;95336.63;;;1.13;100.00
62634;BME280;48704;50.534;6.442;2022-12-07T15:00:27;95330.31;;;1.16;100.00
62634;BME280;48704;50.534;6.442;2022-12-07T15:02:53;95325.66;;;1.13;100.00
62634;BME280;48704;50.534;6.442;2022-12-07T15:05:19;95331.06;;;1.17;100.00
62634;BME280;48704;50.534;6.442;2022-12-07T15:07:46;95322.13;;;1.13;100.00